createdAt,value
2023-08-07T00:01:44.434Z,16.33
2023-08-07T00:04:14.066Z,16.19
2023-08-07T00:06:43.649Z,16.39
2023-08-07T00:09:13.594Z,16.31
2023-08-07T00:11:45.669Z,16.30
2023-08-07T00:14:15.229Z,16.32
2023-08-07T00:16:48.153Z,16.47
2023-08-07T00:19:17.964Z,16.40
2023-08-07T00:21:47.489Z,16.47
2023-08-07T00:24:17.059Z,16.44
2023-08-07T00:26:46.672Z,16.40
2023-08-07T00:29:16.243Z,16.27
2023-08-07T00:31:48.399Z,16.33
2023-08-07T00:34:17.996Z,16.38
2023-08-07T00:36:47.794Z,16.38
2023-08-07T00:39:17.374Z,16.37
2023-08-07T00:41:47.027Z,16.34
2023-08-07T00:44:16.662Z,16.36
2023-08-07T00:46:49.022Z,16.40
2023-08-07T00:49:19.293Z,16.32
2023-08-07T00:51:49.330Z,16.35
2023-08-07T00:54:21.959Z,16.23
2023-08-07T00:56:51.752Z,16.32
2023-08-07T00:59:22.713Z,16.31
2023-08-07T01:01:55.477Z,16.38
2023-08-07T01:04:24.937Z,16.32
2023-08-07T01:06:54.651Z,16.38
2023-08-07T01:09:24.423Z,16.32
2023-08-07T01:12:00.863Z,16.30
2023-08-07T01:14:37.356Z,16.21
2023-08-07T01:17:13.532Z,16.32
2023-08-07T01:19:44.840Z,16.34
2023-08-07T01:22:19.181Z,16.27
2023-08-07T01:24:49.971Z,16.34
2023-08-07T01:27:32.056Z,16.33
2023-08-07T01:30:13.249Z,16.23
2023-08-07T01:32:51.451Z,16.24
2023-08-07T01:35:26.565Z,16.23
2023-08-07T01:38:00.369Z,16.09
2023-08-07T01:40:31.800Z,16.11
2023-08-07T01:43:02.134Z,16.14
2023-08-07T01:45:32.816Z,16.04
2023-08-07T01:48:03.209Z,16.04
2023-08-07T01:50:33.134Z,16.09
2023-08-07T01:53:05.538Z,16.08
2023-08-07T01:55:35.470Z,16.00
2023-08-07T01:58:05.189Z,15.94
2023-08-07T02:00:35.375Z,15.86
2023-08-07T02:03:05.085Z,15.91
2023-08-07T02:05:34.803Z,15.94
2023-08-07T02:08:07.928Z,15.98
2023-08-07T02:10:37.508Z,16.03
2023-08-07T02:15:59.670Z,15.97
2023-08-07T02:18:29.757Z,15.87
2023-08-07T02:20:59.324Z,15.97
2023-08-07T02:23:31.792Z,15.82
2023-08-07T02:26:01.437Z,15.83
2023-08-07T02:28:31.004Z,15.87
2023-08-07T02:31:00.568Z,15.68
2023-08-07T02:33:31.452Z,15.78
2023-08-07T02:38:46.184Z,15.72
2023-08-07T02:41:15.785Z,15.68
2023-08-07T02:43:45.358Z,15.73
2023-08-07T02:46:14.978Z,15.64
2023-08-07T02:48:44.950Z,15.74
2023-08-07T02:51:14.552Z,15.71
2023-08-07T02:53:46.715Z,15.72
2023-08-07T02:56:16.284Z,15.62
2023-08-07T02:58:45.834Z,15.57
2023-08-07T03:01:15.506Z,15.48
2023-08-07T03:03:45.082Z,15.46
2023-08-07T03:06:14.715Z,15.47
2023-08-07T03:08:46.880Z,15.57
2023-08-07T03:11:16.494Z,15.61
2023-08-07T03:13:46.093Z,15.55
2023-08-07T03:16:15.732Z,15.60
2023-08-07T03:18:45.464Z,15.67
2023-08-07T03:21:15.069Z,15.61
2023-08-07T03:23:47.868Z,15.52
2023-08-07T03:26:19.488Z,15.61
2023-08-07T03:28:52.077Z,15.60
2023-08-07T03:31:21.923Z,15.58
2023-08-07T03:33:51.753Z,15.69
2023-08-07T03:36:22.230Z,15.60
2023-08-07T03:38:54.438Z,15.47
2023-08-07T03:41:24.155Z,15.56
2023-08-07T03:43:53.740Z,15.57
2023-08-07T03:46:23.315Z,15.60
2023-08-07T03:48:54.516Z,15.51
2023-08-07T03:51:30.181Z,15.47
2023-08-07T03:54:04.528Z,15.42
2023-08-07T03:56:37.683Z,15.44
2023-08-07T03:59:08.224Z,15.65
2023-08-07T04:01:38.362Z,15.52
2023-08-07T04:04:08.108Z,15.53
2023-08-07T04:06:37.738Z,15.52
2023-08-07T04:09:11.414Z,15.55
2023-08-07T04:11:41.145Z,15.51
2023-08-07T04:14:10.757Z,15.58
2023-08-07T04:16:41.020Z,15.50
2023-08-07T04:19:10.956Z,15.52
2023-08-07T04:21:40.565Z,15.49
2023-08-07T04:24:14.074Z,15.54
2023-08-07T04:26:43.703Z,15.55
2023-08-07T04:29:13.382Z,15.58
2023-08-07T04:31:42.980Z,15.51
2023-08-07T04:34:13.819Z,15.46
2023-08-07T04:36:43.411Z,15.58
2023-08-07T04:39:15.689Z,15.58
2023-08-07T04:41:45.264Z,15.57
2023-08-07T04:44:14.915Z,15.59
2023-08-07T04:46:45.088Z,15.65
2023-08-07T04:49:14.707Z,15.61
2023-08-07T04:51:44.296Z,15.60
2023-08-07T04:54:16.480Z,15.58
2023-08-07T04:56:46.075Z,15.62
2023-08-07T04:59:15.733Z,15.63
2023-08-07T05:01:45.284Z,15.62
2023-08-07T05:04:14.915Z,15.73
2023-08-07T05:06:44.573Z,15.73
2023-08-07T05:09:16.821Z,15.76
2023-08-07T05:11:46.498Z,15.72
2023-08-07T05:14:16.059Z,15.63
2023-08-07T05:16:45.603Z,15.65
2023-08-07T05:19:15.164Z,15.72
2023-08-07T05:21:44.786Z,15.68
2023-08-07T05:24:16.954Z,15.63
2023-08-07T05:26:46.548Z,15.67
2023-08-07T05:29:16.177Z,15.72
2023-08-07T05:31:45.768Z,15.73
2023-08-07T05:34:15.335Z,15.73
2023-08-07T05:36:44.929Z,15.67
2023-08-07T05:39:17.149Z,15.76
2023-08-07T05:41:47.179Z,15.76
2023-08-07T05:44:16.746Z,15.71
2023-08-07T05:46:46.279Z,15.81
2023-08-07T05:49:15.826Z,15.76
2023-08-07T05:51:45.447Z,15.81
2023-08-07T05:54:17.662Z,15.85
2023-08-07T05:56:47.320Z,15.86
2023-08-07T05:59:17.128Z,15.84
2023-08-07T06:01:47.008Z,15.83
2023-08-07T06:04:16.685Z,15.91
2023-08-07T06:06:47.196Z,15.92
2023-08-07T06:09:19.372Z,15.94
2023-08-07T06:11:48.918Z,15.89
2023-08-07T06:14:18.505Z,15.95
2023-08-07T06:16:48.119Z,16.03
2023-08-07T06:19:30.331Z,15.93
2023-08-07T06:22:02.175Z,15.95
2023-08-07T06:24:34.580Z,15.85
2023-08-07T06:27:06.115Z,15.96
2023-08-07T06:29:35.750Z,15.96
2023-08-07T06:32:05.446Z,15.89
2023-08-07T06:34:35.016Z,15.86
2023-08-07T06:37:04.576Z,15.91
2023-08-07T06:39:36.798Z,15.95
2023-08-07T06:42:07.035Z,16.04
2023-08-07T06:44:38.766Z,15.95
2023-08-07T06:47:10.894Z,16.04
2023-08-07T06:49:40.815Z,16.05
2023-08-07T06:52:10.689Z,16.04
2023-08-07T06:54:42.868Z,16.02
2023-08-07T06:57:12.436Z,16.06
2023-08-07T06:59:42.434Z,16.09
2023-08-07T07:02:12.681Z,16.03
2023-08-07T07:04:42.391Z,16.05
2023-08-07T07:07:11.980Z,16.06
2023-08-07T07:09:44.150Z,16.10
2023-08-07T07:12:13.778Z,16.11
2023-08-07T07:14:43.341Z,16.17
2023-08-07T07:17:12.911Z,16.15
2023-08-07T07:19:42.533Z,16.24
2023-08-07T07:22:12.082Z,16.25
2023-08-07T07:24:44.396Z,16.27
2023-08-07T07:27:13.989Z,16.30
2023-08-07T07:29:43.563Z,16.34
2023-08-07T07:32:13.113Z,16.34
2023-08-07T07:34:42.971Z,16.39
2023-08-07T07:37:12.529Z,16.44
2023-08-07T07:39:44.690Z,16.48
2023-08-07T07:42:17.495Z,16.48
2023-08-07T07:44:47.096Z,16.50
2023-08-07T07:47:16.712Z,16.51
2023-08-07T07:49:48.898Z,16.55
2023-08-07T07:52:18.830Z,16.52
2023-08-07T07:54:50.986Z,16.52
2023-08-07T07:57:21.169Z,16.57
2023-08-07T07:59:50.961Z,16.57
2023-08-07T08:02:20.845Z,16.57
2023-08-07T08:04:50.450Z,16.61
2023-08-07T08:07:20.140Z,16.68
2023-08-07T08:09:53.195Z,16.72
2023-08-07T08:12:22.873Z,16.82
2023-08-07T08:14:56.089Z,16.84
2023-08-07T08:17:27.238Z,16.85
2023-08-07T08:19:56.856Z,16.84
2023-08-07T08:22:26.572Z,16.86
2023-08-07T08:24:58.689Z,16.87
2023-08-07T08:27:29.121Z,16.88
2023-08-07T08:29:58.714Z,16.69
2023-08-07T08:32:28.464Z,16.78
2023-08-07T08:34:58.064Z,16.80
2023-08-07T08:37:27.729Z,16.89
2023-08-07T08:39:59.935Z,16.85
2023-08-07T08:42:30.156Z,16.80
2023-08-07T08:45:00.441Z,16.82
2023-08-07T08:47:33.262Z,16.94
2023-08-07T08:50:09.517Z,16.95
2023-08-07T08:52:40.909Z,17.05
2023-08-07T08:55:13.955Z,17.08
2023-08-07T08:57:44.091Z,17.06
2023-08-07T09:00:19.750Z,16.99
2023-08-07T09:02:50.078Z,16.84
2023-08-07T09:05:21.236Z,16.61
2023-08-07T09:07:51.418Z,16.41
2023-08-07T09:10:23.996Z,16.11
2023-08-07T09:13:07.382Z,16.13
2023-08-07T09:15:37.069Z,15.89
2023-08-07T09:18:11.858Z,15.92
2023-08-07T09:20:42.316Z,15.92
2023-08-07T09:23:11.951Z,15.96
2023-08-07T09:25:44.770Z,15.90
2023-08-07T09:28:14.867Z,16.04
2023-08-07T09:30:46.161Z,15.94
2023-08-07T09:33:15.808Z,16.07
2023-08-07T09:35:45.387Z,16.17
2023-08-07T09:38:15.211Z,16.30
2023-08-07T09:40:47.520Z,16.35
2023-08-07T09:43:25.187Z,16.42
2023-08-07T09:45:54.789Z,16.57
2023-08-07T09:48:29.079Z,16.70
2023-08-07T09:51:02.657Z,16.69
2023-08-07T09:53:33.827Z,16.77
2023-08-07T09:56:06.558Z,16.76
2023-08-07T09:58:36.936Z,16.73
2023-08-07T10:01:10.792Z,16.50
2023-08-07T10:03:40.763Z,16.60
2023-08-07T10:06:11.663Z,16.49
2023-08-07T10:08:43.667Z,16.55
2023-08-07T10:11:18.904Z,16.53
2023-08-07T10:13:49.374Z,16.62
2023-08-07T10:16:19.071Z,16.70
2023-08-07T10:18:48.657Z,16.69
2023-08-07T10:21:18.283Z,16.71
2023-08-07T10:23:48.164Z,16.78
2023-08-07T10:26:20.664Z,16.77
2023-08-07T10:28:52.075Z,16.85
2023-08-07T10:31:22.387Z,16.86
2023-08-07T10:33:52.484Z,16.87
2023-08-07T10:36:22.670Z,16.95
2023-08-07T10:38:54.073Z,17.15
2023-08-07T10:41:26.237Z,17.20
2023-08-07T10:43:57.281Z,17.22
2023-08-07T10:46:28.323Z,17.31
2023-08-07T10:49:01.089Z,17.32
2023-08-07T10:51:33.612Z,17.37
2023-08-07T10:54:05.182Z,17.38
2023-08-07T10:56:38.836Z,17.45
2023-08-07T10:59:12.793Z,17.48
2023-08-07T11:01:46.750Z,17.57
2023-08-07T11:04:18.047Z,17.59
2023-08-07T11:06:51.037Z,17.66
2023-08-07T11:09:20.645Z,17.68
2023-08-07T11:11:52.866Z,17.83
2023-08-07T11:14:23.644Z,17.78
2023-08-07T11:16:53.244Z,17.74
2023-08-07T11:19:23.013Z,17.75
2023-08-07T11:21:52.800Z,17.63
2023-08-07T11:24:22.900Z,17.70
2023-08-07T11:26:57.237Z,17.78
2023-08-07T11:29:27.344Z,17.71
2023-08-07T11:31:57.431Z,17.67
2023-08-07T11:34:27.028Z,17.62
2023-08-07T11:36:59.398Z,17.58
2023-08-07T11:39:29.164Z,17.52
2023-08-07T11:42:01.297Z,17.41
2023-08-07T11:44:37.476Z,17.28
2023-08-07T11:47:07.319Z,17.22
2023-08-07T11:49:37.085Z,17.10
2023-08-07T11:52:07.663Z,17.11
2023-08-07T11:54:37.422Z,17.12
2023-08-07T11:57:19.426Z,17.09
2023-08-07T11:59:54.276Z,17.16
2023-08-07T12:02:28.333Z,17.22
2023-08-07T12:05:01.769Z,17.44
2023-08-07T12:07:33.880Z,17.55
2023-08-07T12:10:07.634Z,17.62
2023-08-07T12:12:40.293Z,17.84
2023-08-07T12:15:11.162Z,17.90
2023-08-07T12:17:40.896Z,17.85
2023-08-07T12:20:11.765Z,17.77
2023-08-07T12:22:41.437Z,17.69
2023-08-07T12:25:11.591Z,17.71
2023-08-07T12:27:43.758Z,17.76
2023-08-07T12:30:14.978Z,17.70
2023-08-07T12:32:44.588Z,17.59
2023-08-07T12:35:15.967Z,17.43
2023-08-07T12:37:45.667Z,17.33
2023-08-07T12:42:55.748Z,17.27
2023-08-07T12:47:57.938Z,17.42
2023-08-07T12:50:27.575Z,17.46
2023-08-07T12:52:57.226Z,17.49
2023-08-07T12:55:27.325Z,17.42
2023-08-07T12:57:59.999Z,17.38
2023-08-07T13:00:32.830Z,17.39
2023-08-07T13:03:05.736Z,17.45
2023-08-07T13:05:37.198Z,17.51
2023-08-07T13:08:08.408Z,17.68
2023-08-07T13:10:40.420Z,17.86
2023-08-07T13:13:12.689Z,18.05
2023-08-07T13:15:42.232Z,18.09
2023-08-07T13:18:12.024Z,17.99
2023-08-07T13:20:41.670Z,17.90
2023-08-07T13:23:11.386Z,17.86
2023-08-07T13:25:41.230Z,17.70
2023-08-07T13:28:13.343Z,17.58
2023-08-07T13:30:43.005Z,17.69
2023-08-07T13:33:12.611Z,17.72
2023-08-07T13:35:42.479Z,17.76
2023-08-07T13:38:14.127Z,17.80
2023-08-07T13:40:45.349Z,17.78
2023-08-07T13:43:17.540Z,17.69
2023-08-07T13:45:47.206Z,17.79
2023-08-07T13:48:17.084Z,17.77
2023-08-07T13:50:46.714Z,17.83
2023-08-07T13:53:16.479Z,17.91
2023-08-07T13:55:47.491Z,17.92
2023-08-07T13:58:19.601Z,17.86
2023-08-07T14:00:49.569Z,17.87
2023-08-07T14:03:19.338Z,17.87
2023-08-07T14:05:49.533Z,17.89
2023-08-07T14:08:19.073Z,17.91
2023-08-07T14:10:48.832Z,18.01
2023-08-07T14:13:21.020Z,17.98
2023-08-07T14:15:50.611Z,18.08
2023-08-07T14:18:20.153Z,18.12
2023-08-07T14:21:01.902Z,18.22
2023-08-07T14:23:34.033Z,18.20
2023-08-07T14:26:05.733Z,18.43
2023-08-07T14:28:37.963Z,18.63
2023-08-07T14:31:10.723Z,18.77
2023-08-07T14:33:41.890Z,18.83
2023-08-07T14:36:11.526Z,18.81
2023-08-07T14:38:41.239Z,18.69
2023-08-07T14:41:10.777Z,18.49
2023-08-07T14:43:42.925Z,18.46
2023-08-07T14:46:12.506Z,18.55
2023-08-07T14:48:42.131Z,18.58
2023-08-07T14:51:11.727Z,18.64
2023-08-07T14:53:41.307Z,18.50
2023-08-07T14:56:10.985Z,18.49
2023-08-07T14:58:43.237Z,18.35
2023-08-07T15:01:12.804Z,18.32
2023-08-07T15:03:42.382Z,18.31
2023-08-07T15:06:12.013Z,18.42
2023-08-07T15:08:41.598Z,18.29
2023-08-07T15:11:11.256Z,18.25
2023-08-07T15:13:43.798Z,18.30
2023-08-07T15:16:13.200Z,18.35
2023-08-07T15:18:43.366Z,18.23
2023-08-07T15:21:13.061Z,18.23
2023-08-07T15:23:42.671Z,18.08
2023-08-07T15:26:12.274Z,18.07
2023-08-07T15:28:44.756Z,17.98
2023-08-07T15:31:14.305Z,17.92
2023-08-07T15:33:48.557Z,17.82
2023-08-07T15:36:18.179Z,17.89
2023-08-07T15:38:47.835Z,17.76
2023-08-07T15:41:17.536Z,17.77
2023-08-07T15:43:50.683Z,17.80
2023-08-07T15:46:20.687Z,17.66
2023-08-07T15:48:50.617Z,17.57
2023-08-07T15:51:21.050Z,17.54
2023-08-07T15:53:50.666Z,17.46
2023-08-07T15:56:20.246Z,17.50
2023-08-07T15:58:52.365Z,17.47
2023-08-07T16:01:22.112Z,17.39
2023-08-07T16:03:51.739Z,17.53
2023-08-07T16:06:22.797Z,17.60
2023-08-07T16:08:52.362Z,17.67
2023-08-07T16:11:21.920Z,17.74
2023-08-07T16:13:54.550Z,17.80
2023-08-07T16:16:24.109Z,17.88
2023-08-07T16:18:53.852Z,17.92
2023-08-07T16:21:23.426Z,17.99
2023-08-07T16:23:53.009Z,17.93
2023-08-07T16:26:22.561Z,17.90
2023-08-07T16:28:54.754Z,17.86
2023-08-07T16:31:24.840Z,17.80
2023-08-07T16:33:54.504Z,17.67
2023-08-07T16:36:24.104Z,17.66
2023-08-07T16:38:55.466Z,17.56
2023-08-07T16:41:26.109Z,17.46
2023-08-07T16:43:58.290Z,17.47
2023-08-07T16:46:28.438Z,17.40
2023-08-07T16:48:59.433Z,17.40
2023-08-07T16:51:29.101Z,17.35
2023-08-07T16:53:58.650Z,17.31
2023-08-07T16:56:28.232Z,17.31
2023-08-07T16:59:00.342Z,17.28
2023-08-07T17:01:29.984Z,17.25
2023-08-07T17:03:59.591Z,16.54
2023-08-07T17:06:29.310Z,16.50
2023-08-07T17:08:58.929Z,16.40
2023-08-07T17:11:29.563Z,15.95
2023-08-07T17:14:01.922Z,15.71
2023-08-07T17:16:31.934Z,15.92
2023-08-07T17:19:01.527Z,15.86
2023-08-07T17:21:31.286Z,15.94
2023-08-07T17:24:00.959Z,15.97
2023-08-07T17:26:31.124Z,15.95
2023-08-07T17:29:03.368Z,15.88
2023-08-07T17:31:33.562Z,15.86
2023-08-07T17:34:04.232Z,15.86
2023-08-07T17:36:33.921Z,15.88
2023-08-07T17:39:03.977Z,15.85
2023-08-07T17:41:33.545Z,15.88
2023-08-07T17:44:05.764Z,15.87
2023-08-07T17:46:35.523Z,15.98
2023-08-07T17:49:05.157Z,15.81
2023-08-07T17:51:34.687Z,15.79
2023-08-07T17:54:04.363Z,15.89
2023-08-07T17:56:34.661Z,15.80
2023-08-07T17:59:07.033Z,15.83
2023-08-07T18:01:36.640Z,15.76
2023-08-07T18:04:06.424Z,15.78
2023-08-07T18:06:36.006Z,15.83
2023-08-07T18:09:05.785Z,15.85
2023-08-07T18:11:35.354Z,15.79
2023-08-07T18:14:07.715Z,15.85
2023-08-07T18:16:37.363Z,15.91
2023-08-07T18:19:06.979Z,15.86
2023-08-07T18:21:36.597Z,15.89
2023-08-07T18:24:06.567Z,15.80
2023-08-07T18:26:36.237Z,15.82
2023-08-07T18:29:08.644Z,15.69
2023-08-07T18:31:38.191Z,15.71
2023-08-07T18:34:16.889Z,15.68
2023-08-07T18:36:47.805Z,15.71
2023-08-07T18:39:19.379Z,15.64
2023-08-07T18:41:49.154Z,15.62
2023-08-07T18:44:21.348Z,15.64
2023-08-07T18:46:51.576Z,15.69
2023-08-07T18:49:22.110Z,15.65
2023-08-07T18:51:51.743Z,15.72
2023-08-07T18:54:21.318Z,15.55
2023-08-07T18:56:51.352Z,15.52
2023-08-07T18:59:23.603Z,15.58
2023-08-07T19:01:53.251Z,15.49
2023-08-07T19:04:23.421Z,15.44
2023-08-07T19:06:53.058Z,15.48
2023-08-07T19:09:23.172Z,15.32
2023-08-07T19:11:52.772Z,15.41
2023-08-07T19:14:24.973Z,15.42
2023-08-07T19:16:55.221Z,15.40
2023-08-07T19:19:24.871Z,15.40
2023-08-07T19:21:54.482Z,15.39
2023-08-07T19:24:24.094Z,15.37
2023-08-07T19:26:53.748Z,15.30
2023-08-07T19:29:33.545Z,15.33
2023-08-07T19:32:03.125Z,15.27
2023-08-07T19:34:33.720Z,15.23
2023-08-07T19:37:04.067Z,15.27
2023-08-07T19:39:33.652Z,15.25
2023-08-07T19:42:03.220Z,15.15
2023-08-07T19:44:36.745Z,15.09
2023-08-07T19:47:06.969Z,15.09
2023-08-07T19:49:36.541Z,15.05
2023-08-07T19:52:06.716Z,15.03
2023-08-07T19:54:36.497Z,15.01
2023-08-07T19:57:09.009Z,14.96
2023-08-07T19:59:41.300Z,15.07
2023-08-07T20:02:10.935Z,14.87
2023-08-07T20:04:40.502Z,14.83
2023-08-07T20:07:10.797Z,14.75
2023-08-07T20:09:40.508Z,14.74
2023-08-07T20:12:11.659Z,14.79
2023-08-07T20:14:44.001Z,14.69
2023-08-07T20:17:13.666Z,14.75
2023-08-07T20:19:43.290Z,14.76
2023-08-07T20:22:12.919Z,14.77
2023-08-07T20:24:42.517Z,14.72
2023-08-07T20:27:12.089Z,14.67
2023-08-07T20:29:44.265Z,14.76
2023-08-07T20:32:13.848Z,14.83
2023-08-07T20:34:44.989Z,14.75
2023-08-07T20:37:14.523Z,14.78
2023-08-07T20:39:44.071Z,14.80
2023-08-07T20:42:13.727Z,14.65
2023-08-07T20:44:45.990Z,14.70
2023-08-07T20:47:15.612Z,14.73
2023-08-07T20:49:45.273Z,14.70
2023-08-07T20:52:14.929Z,14.62
2023-08-07T20:54:44.479Z,14.72
2023-08-07T20:57:14.079Z,14.82
2023-08-07T20:59:46.288Z,14.78
2023-08-07T21:02:15.908Z,14.75
2023-08-07T21:04:45.572Z,14.88
2023-08-07T21:07:15.131Z,14.67
2023-08-07T21:09:44.728Z,14.67
2023-08-07T21:12:14.297Z,14.78
2023-08-07T21:14:46.659Z,14.73
2023-08-07T21:17:16.581Z,14.65
2023-08-07T21:19:46.169Z,14.62
2023-08-07T21:24:51.286Z,14.74
2023-08-07T21:27:21.921Z,14.60
2023-08-07T21:29:54.101Z,14.58
2023-08-07T21:32:23.707Z,14.48
2023-08-07T21:34:53.310Z,14.44
2023-08-07T21:37:22.936Z,14.49
2023-08-07T21:39:52.510Z,14.40
2023-08-07T21:42:23.789Z,14.37
2023-08-07T21:44:56.995Z,14.34
2023-08-07T21:47:26.930Z,14.45
2023-08-07T21:49:56.642Z,14.33
2023-08-07T21:52:26.244Z,14.30
2023-08-07T21:54:55.854Z,14.25
2023-08-07T21:57:25.433Z,14.35
2023-08-07T21:59:57.633Z,14.44
2023-08-07T22:02:27.742Z,14.33
2023-08-07T22:04:57.486Z,14.31
2023-08-07T22:07:27.176Z,14.33
2023-08-07T22:09:56.805Z,14.20
2023-08-07T22:12:26.961Z,14.18
2023-08-07T22:14:59.829Z,14.20
2023-08-07T22:17:29.547Z,14.38
2023-08-07T22:20:04.765Z,14.27
2023-08-07T22:22:36.171Z,14.16
2023-08-07T22:25:07.298Z,14.00
2023-08-07T22:27:37.027Z,14.03
2023-08-07T22:30:10.846Z,14.02
2023-08-07T22:32:40.504Z,14.01
2023-08-07T22:35:11.384Z,14.11
2023-08-07T22:37:41.036Z,14.07
2023-08-07T22:40:12.303Z,13.98
2023-08-07T22:42:41.893Z,13.99
2023-08-07T22:45:14.404Z,13.98
2023-08-07T22:47:44.065Z,13.94
2023-08-07T22:50:13.879Z,13.94
2023-08-07T22:52:43.646Z,14.01
2023-08-07T22:55:13.367Z,14.00
2023-08-07T22:57:42.972Z,13.96
2023-08-07T23:00:16.031Z,13.86
2023-08-07T23:02:45.674Z,13.94
2023-08-07T23:05:17.108Z,13.90
2023-08-07T23:07:47.819Z,13.93
2023-08-07T23:10:17.443Z,13.85
2023-08-07T23:12:47.383Z,13.91
2023-08-07T23:15:19.550Z,13.95
2023-08-07T23:17:49.186Z,13.94
2023-08-07T23:20:19.026Z,13.94
2023-08-07T23:22:48.600Z,13.97
2023-08-07T23:25:19.482Z,13.95
2023-08-07T23:27:49.174Z,13.98
2023-08-07T23:30:21.834Z,13.94
2023-08-07T23:32:51.281Z,13.83
2023-08-07T23:35:21.083Z,13.81
2023-08-07T23:37:50.629Z,13.82
2023-08-07T23:40:20.347Z,13.74
2023-08-07T23:42:49.890Z,13.74
2023-08-07T23:45:22.057Z,13.69
2023-08-07T23:47:51.637Z,13.75
2023-08-07T23:50:21.386Z,13.71
2023-08-07T23:52:50.958Z,13.72
2023-08-07T23:55:20.493Z,13.74
2023-08-07T23:57:50.063Z,13.79
